sensor_id;sensor_type;location;lat;lon;timestamp;temperature;humidity
1534;DHT22;760;48.822;9.304;2023-07-31T04:05:41;16.00;99.90
1534;DHT22;760;48.822;9.304;2023-07-31T04:08:06;16.00;99.90
1534;DHT22;760;48.822;9.304;2023-07-31T04:10:32;16.00;99.90
1534;DHT22;760;48.822;9.304;2023-07-31T04:12:59;16.00;99.90
1534;DHT22;760;48.822;9.304;2023-07-31T04:15:25;16.00;99.90
1534;DHT22;760;48.822;9.304;2023-07-31T04:17:51;16.10;99.90
1534;DHT22;760;48.822;9.304;2023-07-31T04:20:17;16.10;99.90
1534;DHT22;760;48.822;9.304;2023-07-31T04:22:42;16.20;99.90
1534;DHT22;760;48.822;9.304;2023-07-31T04:25:08;16.30;99.90
1534;DHT22;760;48.822;9.304;2023-07-31T04:27:34;16.30;99.90
1534;DHT22;760;48.822;9.304;2023-07-31T04:29:59;16.40;99.90
1534;DHT22;760;48.822;9.304;2023-07-31T04:32:25;16.50;99.90
1534;DHT22;760;48.822;9.304;2023-07-31T04:34:51;16.60;99.90
1534;DHT22;760;48.822;9.304;2023-07-31T04:37:16;16.60;99.90
1534;DHT22;760;48.822;9.304;2023-07-31T04:39:42;16.70;99.90
1534;DHT22;760;48.822;9.304;2023-07-31T04:42:07;16.80;99.90
1534;DHT22;760;48.822;9.304;2023-07-31T04:44:33;16.90;99.90
1534;DHT22;760;48.822;9.304;2023-07-31T04:46:58;17.00;99.90
1534;DHT22;760;48.822;9.304;2023-07-31T04:49:24;17.20;99.90
1534;DHT22;760;48.822;9.304;2023-07-31T04:51:50;17.30;99.90
1534;DHT22;760;48.822;9.304;2023-07-31T04:54:16;17.40;99.90
1534;DHT22;760;48.822;9.304;2023-07-31T04:56:41;17.50;99.90
1534;DHT22;760;48.822;9.304;2023-07-31T04:59:07;17.60;99.90
1534;DHT22;760;48.822;9.304;2023-07-31T05:01:33;17.70;99.90
1534;DHT22;760;48.822;9.304;2023-07-31T05:03:58;17.80;99.90
1534;DHT22;760;48.822;9.304;2023-07-31T05:06:24;17.80;99.90
1534;DHT22;760;48.822;9.304;2023-07-31T05:08:49;17.90;99.90
1534;DHT22;760;48.822;9.304;2023-07-31T05:11:15;17.90;99.90
1534;DHT22;760;48.822;9.304;2023-07-31T05:13:40;18.00;99.90
1534;DHT22;760;48.822;9.304;2023-07-31T05:16:06;18.10;99.90
1534;DHT22;760;48.822;9.304;2023-07-31T05:18:32;18.10;99.90
1534;DHT22;760;48.822;9.304;2023-07-31T05:20:57;18.10;99.90
1534;DHT22;760;48.822;9.304;2023-07-31T05:23:23;18.10;99.90
1534;DHT22;760;48.822;9.304;2023-07-31T05:25:48;18.10;99.90
1534;DHT22;760;48.822;9.304;2023-07-31T05:28:14;18.10;99.90
1534;DHT22;760;48.822;9.304;2023-07-31T05:30:40;18.20;99.90
1534;DHT22;760;48.822;9.304;2023-07-31T05:33:05;18.20;99.90
1534;DHT22;760;48.822;9.304;2023-07-31T05:35:31;18.20;99.90
1534;DHT22;760;48.822;9.304;2023-07-31T05:37:57;18.20;99.90
1534;DHT22;760;48.822;9.304;2023-07-31T05:40:22;18.30;99.90
1534;DHT22;760;48.822;9.304;2023-07-31T05:42:48;18.40;99.90
1534;DHT22;760;48.822;9.304;2023-07-31T05:45:13;18.40;99.90
1534;DHT22;760;48.822;9.304;2023-07-31T05:47:39;18.50;99.90
1534;DHT22;760;48.822;9.304;2023-07-31T05:50:05;18.60;99.90
1534;DHT22;760;48.822;9.304;2023-07-31T05:52:31;18.70;99.90
1534;DHT22;760;48.822;9.304;2023-07-31T05:54:56;18.80;99.90
1534;DHT22;760;48.822;9.304;2023-07-31T05:57:22;18.90;99.90
1534;DHT22;760;48.822;9.304;2023-07-31T05:59:48;18.90;99.90
1534;DHT22;760;48.822;9.304;2023-07-31T06:02:13;19.00;99.90
1534;DHT22;760;48.822;9.304;2023-07-31T06:04:39;19.10;99.90
1534;DHT22;760;48.822;9.304;2023-07-31T06:07:05;19.10;99.90
1534;DHT22;760;48.822;9.304;2023-07-31T06:09:30;19.20;99.90
1534;DHT22;760;48.822;9.304;2023-07-31T06:11:56;19.30;99.90
1534;DHT22;760;48.822;9.304;2023-07-31T06:14:22;19.30;99.90
1534;DHT22;760;48.822;9.304;2023-07-31T06:16:47;19.30;99.90
1534;DHT22;760;48.822;9.304;2023-07-31T06:19:13;19.40;99.90
1534;DHT22;760;48.822;9.304;2023-07-31T06:21:39;19.50;99.90
1534;DHT22;760;48.822;9.304;2023-07-31T06:24:05;19.50;99.90
1534;DHT22;760;48.822;9.304;2023-07-31T06:26:31;19.70;99.90
1534;DHT22;760;48.822;9.304;2023-07-31T06:28:56;19.90;99.90
1534;DHT22;760;48.822;9.304;2023-07-31T06:31:22;20.10;99.90
1534;DHT22;760;48.822;9.304;2023-07-31T06:33:51;20.20;99.90
1534;DHT22;760;48.822;9.304;2023-07-31T06:36:18;20.40;99.90
1534;DHT22;760;48.822;9.304;2023-07-31T06:38:43;20.60;99.90
1534;DHT22;760;48.822;9.304;2023-07-31T06:41:09;20.70;99.90
1534;DHT22;760;48.822;9.304;2023-07-31T06:43:36;20.80;99.90
1534;DHT22;760;48.822;9.304;2023-07-31T06:46:05;20.90;99.90
1534;DHT22;760;48.822;9.304;2023-07-31T06:48:32;20.90;99.90
1534;DHT22;760;48.822;9.304;2023-07-31T06:50:58;21.00;99.90
1534;DHT22;760;48.822;9.304;2023-07-31T06:53:24;21.20;99.90
1534;DHT22;760;48.822;9.304;2023-07-31T06:55:49;21.20;99.70
1534;DHT22;760;48.822;9.304;2023-07-31T06:58:17;21.20;99.50
1534;DHT22;760;48.822;9.304;2023-07-31T07:00:44;21.30;99.60
1534;DHT22;760;48.822;9.304;2023-07-31T07:03:10;21.50;99.80
1534;DHT22;760;48.822;9.304;2023-07-31T07:05:36;21.60;99.80
1534;DHT22;760;48.822;9.304;2023-07-31T07:08:01;21.80;98.60
1534;DHT22;760;48.822;9.304;2023-07-31T07:10:27;21.80;98.50
1534;DHT22;760;48.822;9.304;2023-07-31T07:12:54;21.90;97.90
1534;DHT22;760;48.822;9.304;2023-07-31T07:15:20;22.00;97.50
1534;DHT22;760;48.822;9.304;2023-07-31T07:17:46;22.20;97.60
1534;DHT22;760;48.822;9.304;2023-07-31T07:20:12;22.40;97.10
1534;DHT22;760;48.822;9.304;2023-07-31T07:22:38;22.50;97.00
1534;DHT22;760;48.822;9.304;2023-07-31T07:25:04;22.60;96.40
1534;DHT22;760;48.822;9.304;2023-07-31T07:27:30;22.70;96.00
1534;DHT22;760;48.822;9.304;2023-07-31T07:29:55;22.90;95.90
1534;DHT22;760;48.822;9.304;2023-07-31T07:32:21;23.10;95.70
1534;DHT22;760;48.822;9.304;2023-07-31T07:34:48;23.30;95.50
1534;DHT22;760;48.822;9.304;2023-07-31T07:37:14;23.40;94.90
1534;DHT22;760;48.822;9.304;2023-07-31T07:39:39;23.50;94.70
1534;DHT22;760;48.822;9.304;2023-07-31T07:42:05;23.60;94.40
1534;DHT22;760;48.822;9.304;2023-07-31T07:44:31;23.80;94.50
1534;DHT22;760;48.822;9.304;2023-07-31T07:46:57;23.90;93.80
1534;DHT22;760;48.822;9.304;2023-07-31T07:49:22;24.00;93.60
1534;DHT22;760;48.822;9.304;2023-07-31T07:51:48;24.00;93.90
1534;DHT22;760;48.822;9.304;2023-07-31T07:54:15;24.00;93.10
1534;DHT22;760;48.822;9.304;2023-07-31T07:56:42;24.00;93.30
1534;DHT22;760;48.822;9.304;2023-07-31T07:59:08;24.40;93.40
1534;DHT22;760;48.822;9.304;2023-07-31T08:01:34;25.10;92.70
1534;DHT22;760;48.822;9.304;2023-07-31T08:03:59;25.70;91.80
1534;DHT22;760;48.822;9.304;2023-07-31T08:06:25;26.40;91.10
1534;DHT22;760;48.822;9.304;2023-07-31T08:08:51;26.60;90.20
1534;DHT22;760;48.822;9.304;2023-07-31T08:11:16;26.60;88.30
1534;DHT22;760;48.822;9.304;2023-07-31T08:13:42;26.60;88.60
1534;DHT22;760;48.822;9.304;2023-07-31T08:16:07;26.60;88.10
1534;DHT22;760;48.822;9.304;2023-07-31T08:18:34;26.90;87.50
1534;DHT22;760;48.822;9.304;2023-07-31T08:21:01;27.20;87.20
1534;DHT22;760;48.822;9.304;2023-07-31T08:23:26;27.80;87.20
1534;DHT22;760;48.822;9.304;2023-07-31T08:25:52;28.20;84.10
1534;DHT22;760;48.822;9.304;2023-07-31T08:28:17;28.30;82.80
1534;DHT22;760;48.822;9.304;2023-07-31T08:30:43;28.50;81.50
1534;DHT22;760;48.822;9.304;2023-07-31T08:33:09;28.60;80.60
1534;DHT22;760;48.822;9.304;2023-07-31T08:35:36;28.60;80.40
1534;DHT22;760;48.822;9.304;2023-07-31T08:38:01;28.60;80.50
1534;DHT22;760;48.822;9.304;2023-07-31T08:40:28;28.50;80.40
1534;DHT22;760;48.822;9.304;2023-07-31T08:42:55;28.50;80.60
1534;DHT22;760;48.822;9.304;2023-07-31T08:45:22;28.70;79.50
1534;DHT22;760;48.822;9.304;2023-07-31T08:47:49;28.80;79.90
1534;DHT22;760;48.822;9.304;2023-07-31T08:50:16;28.80;80.10
1534;DHT22;760;48.822;9.304;2023-07-31T08:52:43;28.80;79.20
1534;DHT22;760;48.822;9.304;2023-07-31T08:55:09;28.90;79.50
1534;DHT22;760;48.822;9.304;2023-07-31T08:57:36;29.30;78.60
1534;DHT22;760;48.822;9.304;2023-07-31T09:00:04;29.70;78.30
1534;DHT22;760;48.822;9.304;2023-07-31T09:02:54;29.80;76.30
1534;DHT22;760;48.822;9.304;2023-07-31T09:05:21;29.40;75.70
1534;DHT22;760;48.822;9.304;2023-07-31T09:07:50;28.90;77.10
1534;DHT22;760;48.822;9.304;2023-07-31T09:10:15;28.60;78.20
1534;DHT22;760;48.822;9.304;2023-07-31T09:12:41;28.40;79.10
1534;DHT22;760;48.822;9.304;2023-07-31T09:15:08;28.30;79.20
1534;DHT22;760;48.822;9.304;2023-07-31T09:17:35;28.40;79.10
1534;DHT22;760;48.822;9.304;2023-07-31T09:20:18;28.70;80.30
1534;DHT22;760;48.822;9.304;2023-07-31T09:22:44;29.10;78.90
1534;DHT22;760;48.822;9.304;2023-07-31T09:25:21;29.60;77.70
1534;DHT22;760;48.822;9.304;2023-07-31T09:27:58;29.70;76.70
1534;DHT22;760;48.822;9.304;2023-07-31T09:30:23;29.70;75.70
1534;DHT22;760;48.822;9.304;2023-07-31T09:32:50;29.50;75.80
1534;DHT22;760;48.822;9.304;2023-07-31T09:35:32;29.20;77.40
1534;DHT22;760;48.822;9.304;2023-07-31T09:38:20;28.70;77.60
1534;DHT22;760;48.822;9.304;2023-07-31T09:40:47;28.50;77.90
1534;DHT22;760;48.822;9.304;2023-07-31T09:43:17;28.40;80.00
1534;DHT22;760;48.822;9.304;2023-07-31T09:45:44;28.80;80.00
1534;DHT22;760;48.822;9.304;2023-07-31T09:48:12;28.90;77.80
1534;DHT22;760;48.822;9.304;2023-07-31T09:50:40;28.80;77.50
1534;DHT22;760;48.822;9.304;2023-07-31T09:53:07;28.60;77.50
1534;DHT22;760;48.822;9.304;2023-07-31T09:55:34;28.40;77.00
1534;DHT22;760;48.822;9.304;2023-07-31T09:58:04;27.90;78.10
1534;DHT22;760;48.822;9.304;2023-07-31T10:00:30;27.60;79.70
1534;DHT22;760;48.822;9.304;2023-07-31T10:02:59;27.50;80.40
1534;DHT22;760;48.822;9.304;2023-07-31T10:05:35;27.30;80.20
1534;DHT22;760;48.822;9.304;2023-07-31T10:08:01;27.50;81.80
1534;DHT22;760;48.822;9.304;2023-07-31T10:10:28;27.70;80.70
1534;DHT22;760;48.822;9.304;2023-07-31T10:12:55;27.60;79.80
1534;DHT22;760;48.822;9.304;2023-07-31T10:15:21;27.30;81.00
1534;DHT22;760;48.822;9.304;2023-07-31T10:17:48;26.90;81.70
1534;DHT22;760;48.822;9.304;2023-07-31T10:20:15;26.40;83.20
1534;DHT22;760;48.822;9.304;2023-07-31T10:22:44;26.30;83.70
1534;DHT22;760;48.822;9.304;2023-07-31T10:25:12;26.30;84.30
1534;DHT22;760;48.822;9.304;2023-07-31T10:27:39;26.40;86.10
1534;DHT22;760;48.822;9.304;2023-07-31T10:30:06;26.80;83.60
1534;DHT22;760;48.822;9.304;2023-07-31T10:32:33;27.10;84.70
1534;DHT22;760;48.822;9.304;2023-07-31T10:35:01;27.40;82.50
1534;DHT22;760;48.822;9.304;2023-07-31T10:37:30;27.80;85.10
1534;DHT22;760;48.822;9.304;2023-07-31T10:40:03;28.30;81.10
1534;DHT22;760;48.822;9.304;2023-07-31T10:42:31;28.30;80.10
1534;DHT22;760;48.822;9.304;2023-07-31T10:45:03;28.70;80.20
1534;DHT22;760;48.822;9.304;2023-07-31T10:47:29;29.10;77.60
1534;DHT22;760;48.822;9.304;2023-07-31T10:50:17;29.10;77.50
1534;DHT22;760;48.822;9.304;2023-07-31T10:52:48;29.10;78.10
1534;DHT22;760;48.822;9.304;2023-07-31T10:55:26;29.50;77.10
1534;DHT22;760;48.822;9.304;2023-07-31T10:57:53;29.90;77.10
1534;DHT22;760;48.822;9.304;2023-07-31T11:00:27;29.90;75.70
1534;DHT22;760;48.822;9.304;2023-07-31T11:08:30;29.50;77.10
1534;DHT22;760;48.822;9.304;2023-07-31T11:13:32;30.10;74.90
1534;DHT22;760;48.822;9.304;2023-07-31T11:15:58;30.40;74.40
1534;DHT22;760;48.822;9.304;2023-07-31T11:18:24;30.40;74.30
1534;DHT22;760;48.822;9.304;2023-07-31T11:20:49;30.20;74.00
1534;DHT22;760;48.822;9.304;2023-07-31T11:23:18;29.80;73.10
1534;DHT22;760;48.822;9.304;2023-07-31T11:25:44;29.30;75.50
1534;DHT22;760;48.822;9.304;2023-07-31T11:28:14;29.10;75.10
1534;DHT22;760;48.822;9.304;2023-07-31T11:30:41;28.70;75.30
1534;DHT22;760;48.822;9.304;2023-07-31T11:33:08;28.30;76.10
1534;DHT22;760;48.822;9.304;2023-07-31T11:38:23;27.80;78.10
1534;DHT22;760;48.822;9.304;2023-07-31T11:40:49;27.50;77.60
1534;DHT22;760;48.822;9.304;2023-07-31T11:43:15;27.20;78.20
1534;DHT22;760;48.822;9.304;2023-07-31T11:45:48;26.90;79.30
1534;DHT22;760;48.822;9.304;2023-07-31T11:48:24;26.60;80.00
1534;DHT22;760;48.822;9.304;2023-07-31T11:50:54;26.20;81.00
1534;DHT22;760;48.822;9.304;2023-07-31T11:53:41;25.90;82.30
1534;DHT22;760;48.822;9.304;2023-07-31T11:56:10;25.60;83.30
1534;DHT22;760;48.822;9.304;2023-07-31T11:58:38;25.40;84.50
1534;DHT22;760;48.822;9.304;2023-07-31T12:01:05;25.20;86.10
1534;DHT22;760;48.822;9.304;2023-07-31T12:03:31;25.20;86.10
1534;DHT22;760;48.822;9.304;2023-07-31T12:05:58;25.30;87.30
1534;DHT22;760;48.822;9.304;2023-07-31T12:08:25;25.30;86.20
1534;DHT22;760;48.822;9.304;2023-07-31T12:10:51;25.30;85.80
1534;DHT22;760;48.822;9.304;2023-07-31T12:13:25;25.30;86.20
1534;DHT22;760;48.822;9.304;2023-07-31T12:15:59;25.50;86.90
1534;DHT22;760;48.822;9.304;2023-07-31T12:18:26;25.50;86.50
1534;DHT22;760;48.822;9.304;2023-07-31T12:20:57;25.60;85.40
1534;DHT22;760;48.822;9.304;2023-07-31T12:23:26;25.50;85.40
1534;DHT22;760;48.822;9.304;2023-07-31T12:26:05;25.50;85.30
1534;DHT22;760;48.822;9.304;2023-07-31T12:28:36;25.40;86.10
1534;DHT22;760;48.822;9.304;2023-07-31T12:31:02;25.30;86.30
1534;DHT22;760;48.822;9.304;2023-07-31T12:33:35;25.10;86.80
1534;DHT22;760;48.822;9.304;2023-07-31T12:36:02;25.00;87.00
1534;DHT22;760;48.822;9.304;2023-07-31T12:38:29;25.00;87.90
1534;DHT22;760;48.822;9.304;2023-07-31T12:40:55;25.00;88.20
1534;DHT22;760;48.822;9.304;2023-07-31T12:43:20;25.10;88.90
1534;DHT22;760;48.822;9.304;2023-07-31T12:45:46;25.20;88.50
1534;DHT22;760;48.822;9.304;2023-07-31T12:48:13;25.30;88.50
1534;DHT22;760;48.822;9.304;2023-07-31T12:50:38;25.50;88.80
1534;DHT22;760;48.822;9.304;2023-07-31T12:53:05;25.60;88.80
1534;DHT22;760;48.822;9.304;2023-07-31T12:55:31;25.50;87.30
1534;DHT22;760;48.822;9.304;2023-07-31T12:57:58;25.50;86.90
1534;DHT22;760;48.822;9.304;2023-07-31T13:00:23;25.20;86.90
1534;DHT22;760;48.822;9.304;2023-07-31T13:02:49;25.00;87.50
1534;DHT22;760;48.822;9.304;2023-07-31T13:05:15;24.90;88.70
1534;DHT22;760;48.822;9.304;2023-07-31T13:07:41;24.90;88.70
1534;DHT22;760;48.822;9.304;2023-07-31T13:10:07;24.80;88.70
1534;DHT22;760;48.822;9.304;2023-07-31T13:12:33;24.80;89.00
1534;DHT22;760;48.822;9.304;2023-07-31T13:14:59;24.80;90.10
1534;DHT22;760;48.822;9.304;2023-07-31T13:17:24;24.80;89.80
1534;DHT22;760;48.822;9.304;2023-07-31T13:19:50;24.80;90.10
1534;DHT22;760;48.822;9.304;2023-07-31T13:22:15;24.80;90.00
1534;DHT22;760;48.822;9.304;2023-07-31T13:24:41;24.80;88.70
1534;DHT22;760;48.822;9.304;2023-07-31T13:27:07;24.70;88.70
1534;DHT22;760;48.822;9.304;2023-07-31T13:29:32;24.70;88.40
1534;DHT22;760;48.822;9.304;2023-07-31T13:31:58;24.70;88.20
1534;DHT22;760;48.822;9.304;2023-07-31T13:34:24;24.70;88.70
1534;DHT22;760;48.822;9.304;2023-07-31T13:36:49;24.80;88.80
1534;DHT22;760;48.822;9.304;2023-07-31T13:39:15;24.80;89.20
1534;DHT22;760;48.822;9.304;2023-07-31T13:41:41;24.80;88.70
1534;DHT22;760;48.822;9.304;2023-07-31T13:44:06;24.90;88.40
1534;DHT22;760;48.822;9.304;2023-07-31T13:46:32;25.00;89.10
1534;DHT22;760;48.822;9.304;2023-07-31T13:48:59;25.30;88.80
1534;DHT22;760;48.822;9.304;2023-07-31T13:51:25;25.50;90.00
1534;DHT22;760;48.822;9.304;2023-07-31T13:53:51;25.60;87.50
1534;DHT22;760;48.822;9.304;2023-07-31T13:56:16;25.80;86.70
1534;DHT22;760;48.822;9.304;2023-07-31T13:58:42;25.80;87.00
1534;DHT22;760;48.822;9.304;2023-07-31T14:01:07;25.90;87.00
1534;DHT22;760;48.822;9.304;2023-07-31T14:03:34;26.00;88.10
1534;DHT22;760;48.822;9.304;2023-07-31T14:05:59;26.00;88.20
1534;DHT22;760;48.822;9.304;2023-07-31T14:08:25;26.00;89.50
1534;DHT22;760;48.822;9.304;2023-07-31T14:10:51;26.10;87.90
1534;DHT22;760;48.822;9.304;2023-07-31T14:13:16;26.20;88.20
1534;DHT22;760;48.822;9.304;2023-07-31T14:15:42;26.30;88.10
1534;DHT22;760;48.822;9.304;2023-07-31T14:18:08;26.30;87.70
1534;DHT22;760;48.822;9.304;2023-07-31T14:20:34;26.20;85.40
1534;DHT22;760;48.822;9.304;2023-07-31T14:23:00;26.10;84.70
1534;DHT22;760;48.822;9.304;2023-07-31T14:25:26;26.00;85.50
1534;DHT22;760;48.822;9.304;2023-07-31T14:27:52;26.00;85.70
1534;DHT22;760;48.822;9.304;2023-07-31T14:30:17;25.90;86.00
1534;DHT22;760;48.822;9.304;2023-07-31T14:32:44;25.90;86.80
1534;DHT22;760;48.822;9.304;2023-07-31T14:35:09;25.80;87.70
1534;DHT22;760;48.822;9.304;2023-07-31T14:37:43;25.90;87.60
1534;DHT22;760;48.822;9.304;2023-07-31T14:40:10;25.90;89.10
1534;DHT22;760;48.822;9.304;2023-07-31T14:42:37;26.00;88.40
1534;DHT22;760;48.822;9.304;2023-07-31T14:45:07;26.10;88.10
1534;DHT22;760;48.822;9.304;2023-07-31T14:47:33;26.10;88.30
1534;DHT22;760;48.822;9.304;2023-07-31T14:49:59;26.10;87.60
1534;DHT22;760;48.822;9.304;2023-07-31T14:52:25;26.00;87.50
1534;DHT22;760;48.822;9.304;2023-07-31T14:54:52;26.00;87.90
1534;DHT22;760;48.822;9.304;2023-07-31T14:57:17;26.00;89.80
1534;DHT22;760;48.822;9.304;2023-07-31T14:59:44;26.00;87.50
1534;DHT22;760;48.822;9.304;2023-07-31T15:02:10;26.00;87.10
1534;DHT22;760;48.822;9.304;2023-07-31T15:04:36;26.00;87.80
1534;DHT22;760;48.822;9.304;2023-07-31T15:07:02;26.10;88.00
1534;DHT22;760;48.822;9.304;2023-07-31T15:09:28;26.10;88.30
1534;DHT22;760;48.822;9.304;2023-07-31T15:11:55;26.10;87.70
1534;DHT22;760;48.822;9.304;2023-07-31T15:14:20;26.00;87.80
1534;DHT22;760;48.822;9.304;2023-07-31T15:16:46;25.90;88.30
1534;DHT22;760;48.822;9.304;2023-07-31T15:19:12;25.80;88.60
1534;DHT22;760;48.822;9.304;2023-07-31T15:21:38;25.80;89.00
1534;DHT22;760;48.822;9.304;2023-07-31T15:24:04;25.90;88.50
1534;DHT22;760;48.822;9.304;2023-07-31T15:26:29;25.90;88.10
1534;DHT22;760;48.822;9.304;2023-07-31T15:29:00;25.80;88.10
1534;DHT22;760;48.822;9.304;2023-07-31T15:31:27;25.80;86.80
1534;DHT22;760;48.822;9.304;2023-07-31T15:33:53;25.80;87.50
1534;DHT22;760;48.822;9.304;2023-07-31T15:36:18;25.90;87.90
1534;DHT22;760;48.822;9.304;2023-07-31T15:38:44;25.90;89.30
1534;DHT22;760;48.822;9.304;2023-07-31T15:41:11;26.00;88.70
1534;DHT22;760;48.822;9.304;2023-07-31T15:43:37;26.10;87.20
1534;DHT22;760;48.822;9.304;2023-07-31T15:46:02;26.10;87.10
1534;DHT22;760;48.822;9.304;2023-07-31T15:48:28;26.10;87.00
1534;DHT22;760;48.822;9.304;2023-07-31T15:50:54;26.00;86.10
1534;DHT22;760;48.822;9.304;2023-07-31T15:53:19;25.90;88.40
1534;DHT22;760;48.822;9.304;2023-07-31T15:55:45;25.90;88.00
1534;DHT22;760;48.822;9.304;2023-07-31T15:58:10;25.80;85.90
1534;DHT22;760;48.822;9.304;2023-07-31T16:00:36;25.70;86.20
1534;DHT22;760;48.822;9.304;2023-07-31T16:03:01;25.60;86.70
1534;DHT22;760;48.822;9.304;2023-07-31T16:05:27;25.50;86.50
1534;DHT22;760;48.822;9.304;2023-07-31T16:07:52;25.40;87.00
1534;DHT22;760;48.822;9.304;2023-07-31T16:10:18;25.30;87.50
1534;DHT22;760;48.822;9.304;2023-07-31T16:12:44;25.10;87.70
1534;DHT22;760;48.822;9.304;2023-07-31T16:15:09;25.00;88.90
1534;DHT22;760;48.822;9.304;2023-07-31T16:17:35;25.00;89.70
1534;DHT22;760;48.822;9.304;2023-07-31T16:20:01;25.00;90.50
1534;DHT22;760;48.822;9.304;2023-07-31T16:22:27;25.10;90.60
1534;DHT22;760;48.822;9.304;2023-07-31T16:24:52;25.10;90.30
1534;DHT22;760;48.822;9.304;2023-07-31T16:27:18;25.10;89.30
1534;DHT22;760;48.822;9.304;2023-07-31T16:29:45;25.10;89.80
1534;DHT22;760;48.822;9.304;2023-07-31T16:32:11;25.00;89.20
1534;DHT22;760;48.822;9.304;2023-07-31T16:34:37;24.90;89.50
1534;DHT22;760;48.822;9.304;2023-07-31T16:37:03;24.80;89.70
1534;DHT22;760;48.822;9.304;2023-07-31T16:39:28;24.80;90.30
1534;DHT22;760;48.822;9.304;2023-07-31T16:42:00;24.70;90.20
1534;DHT22;760;48.822;9.304;2023-07-31T16:44:26;24.60;90.70
1534;DHT22;760;48.822;9.304;2023-07-31T16:46:51;24.60;91.00
1534;DHT22;760;48.822;9.304;2023-07-31T16:49:17;24.60;91.40
1534;DHT22;760;48.822;9.304;2023-07-31T16:51:43;24.60;91.30
1534;DHT22;760;48.822;9.304;2023-07-31T16:54:08;24.50;91.30
1534;DHT22;760;48.822;9.304;2023-07-31T16:56:34;24.40;91.10
1534;DHT22;760;48.822;9.304;2023-07-31T16:58:59;24.40;91.40
1534;DHT22;760;48.822;9.304;2023-07-31T17:01:25;24.30;91.40
1534;DHT22;760;48.822;9.304;2023-07-31T17:03:56;24.20;91.70
1534;DHT22;760;48.822;9.304;2023-07-31T17:06:22;24.10;91.80
1534;DHT22;760;48.822;9.304;2023-07-31T17:08:47;23.90;92.20
1534;DHT22;760;48.822;9.304;2023-07-31T17:11:13;23.80;92.10
1534;DHT22;760;48.822;9.304;2023-07-31T17:13:39;23.80;91.80
1534;DHT22;760;48.822;9.304;2023-07-31T17:16:04;23.70;91.70
1534;DHT22;760;48.822;9.304;2023-07-31T17:18:30;23.70;92.30
1534;DHT22;760;48.822;9.304;2023-07-31T17:20:55;23.60;92.30
1534;DHT22;760;48.822;9.304;2023-07-31T17:23:21;23.60;92.50
1534;DHT22;760;48.822;9.304;2023-07-31T17:25:46;23.50;92.60
1534;DHT22;760;48.822;9.304;2023-07-31T17:28:12;23.50;92.70
1534;DHT22;760;48.822;9.304;2023-07-31T17:30:37;23.50;92.70
1534;DHT22;760;48.822;9.304;2023-07-31T17:33:03;23.40;93.00
1534;DHT22;760;48.822;9.304;2023-07-31T17:35:29;23.30;93.30
1534;DHT22;760;48.822;9.304;2023-07-31T17:37:55;23.20;93.70
1534;DHT22;760;48.822;9.304;2023-07-31T17:40:20;23.10;94.10
1534;DHT22;760;48.822;9.304;2023-07-31T17:42:46;23.10;94.60
1534;DHT22;760;48.822;9.304;2023-07-31T17:45:11;23.00;94.70
1534;DHT22;760;48.822;9.304;2023-07-31T17:47:37;23.00;94.70
1534;DHT22;760;48.822;9.304;2023-07-31T17:50:03;22.90;94.50
1534;DHT22;760;48.822;9.304;2023-07-31T17:52:29;22.80;94.60
1534;DHT22;760;48.822;9.304;2023-07-31T17:54:54;22.80;94.80
1534;DHT22;760;48.822;9.304;2023-07-31T17:57:20;22.70;94.90
1534;DHT22;760;48.822;9.304;2023-07-31T17:59:46;22.70;95.00
1534;DHT22;760;48.822;9.304;2023-07-31T18:02:12;22.60;95.00
1534;DHT22;760;48.822;9.304;2023-07-31T18:04:38;22.60;95.10
1534;DHT22;760;48.822;9.304;2023-07-31T18:07:04;22.50;95.20
1534;DHT22;760;48.822;9.304;2023-07-31T18:09:29;22.50;95.00
1534;DHT22;760;48.822;9.304;2023-07-31T18:11:55;22.50;95.40
1534;DHT22;760;48.822;9.304;2023-07-31T18:14:22;22.50;95.20
1534;DHT22;760;48.822;9.304;2023-07-31T18:16:51;22.50;95.30
1534;DHT22;760;48.822;9.304;2023-07-31T18:19:16;22.40;95.60
1534;DHT22;760;48.822;9.304;2023-07-31T18:21:42;22.40;95.40
1534;DHT22;760;48.822;9.304;2023-07-31T18:24:07;22.40;95.50
1534;DHT22;760;48.822;9.304;2023-07-31T18:26:35;22.40;95.70
1534;DHT22;760;48.822;9.304;2023-07-31T18:29:02;22.30;95.80
1534;DHT22;760;48.822;9.304;2023-07-31T18:31:27;22.30;95.90
1534;DHT22;760;48.822;9.304;2023-07-31T18:33:53;22.30;96.10
1534;DHT22;760;48.822;9.304;2023-07-31T18:36:19;22.20;96.50
1534;DHT22;760;48.822;9.304;2023-07-31T18:38:45;22.20;96.50
1534;DHT22;760;48.822;9.304;2023-07-31T18:41:10;22.20;96.70
1534;DHT22;760;48.822;9.304;2023-07-31T18:43:37;22.20;96.70
1534;DHT22;760;48.822;9.304;2023-07-31T18:46:02;22.20;96.70
1534;DHT22;760;48.822;9.304;2023-07-31T18:48:28;22.20;96.80
1534;DHT22;760;48.822;9.304;2023-07-31T18:50:56;22.10;96.80
1534;DHT22;760;48.822;9.304;2023-07-31T18:53:22;22.10;96.80
1534;DHT22;760;48.822;9.304;2023-07-31T18:55:48;22.00;96.90
1534;DHT22;760;48.822;9.304;2023-07-31T18:58:14;22.00;97.10
1534;DHT22;760;48.822;9.304;2023-07-31T19:00:39;21.90;97.20
1534;DHT22;760;48.822;9.304;2023-07-31T19:03:05;21.90;97.90
1534;DHT22;760;48.822;9.304;2023-07-31T19:05:30;21.80;98.50
1534;DHT22;760;48.822;9.304;2023-07-31T19:07:56;21.80;99.10
1534;DHT22;760;48.822;9.304;2023-07-31T19:10:25;21.60;99.90
1534;DHT22;760;48.822;9.304;2023-07-31T19:12:50;21.50;99.90
1534;DHT22;760;48.822;9.304;2023-07-31T19:15:16;21.40;99.90
1534;DHT22;760;48.822;9.304;2023-07-31T19:17:41;21.20;99.90
1534;DHT22;760;48.822;9.304;2023-07-31T19:20:11;21.00;99.90
1534;DHT22;760;48.822;9.304;2023-07-31T19:22:39;20.90;99.90
1534;DHT22;760;48.822;9.304;2023-07-31T19:25:05;20.80;99.90
1534;DHT22;760;48.822;9.304;2023-07-31T19:27:31;20.70;99.90
1534;DHT22;760;48.822;9.304;2023-07-31T19:29:57;20.50;99.90
1534;DHT22;760;48.822;9.304;2023-07-31T19:32:23;20.40;99.90
1534;DHT22;760;48.822;9.304;2023-07-31T19:34:49;20.20;99.90
1534;DHT22;760;48.822;9.304;2023-07-31T19:37:14;20.10;99.90
1534;DHT22;760;48.822;9.304;2023-07-31T19:39:41;20.00;99.90
1534;DHT22;760;48.822;9.304;2023-07-31T19:42:07;19.90;99.90
1534;DHT22;760;48.822;9.304;2023-07-31T19:44:34;19.80;99.90
1534;DHT22;760;48.822;9.304;2023-07-31T19:46:59;19.70;99.90
1534;DHT22;760;48.822;9.304;2023-07-31T19:49:26;19.60;99.90
1534;DHT22;760;48.822;9.304;2023-07-31T19:51:53;19.50;99.90
1534;DHT22;760;48.822;9.304;2023-07-31T19:54:18;19.40;99.90
1534;DHT22;760;48.822;9.304;2023-07-31T19:56:44;19.40;99.90
1534;DHT22;760;48.822;9.304;2023-07-31T19:59:10;19.30;99.90
1534;DHT22;760;48.822;9.304;2023-07-31T20:01:36;19.20;99.90
1534;DHT22;760;48.822;9.304;2023-07-31T20:04:01;19.20;99.90
1534;DHT22;760;48.822;9.304;2023-07-31T20:06:27;19.10;99.90
1534;DHT22;760;48.822;9.304;2023-07-31T20:08:52;19.00;99.90
1534;DHT22;760;48.822;9.304;2023-07-31T20:11:18;19.00;99.90
1534;DHT22;760;48.822;9.304;2023-07-31T20:13:44;18.90;99.90
1534;DHT22;760;48.822;9.304;2023-07-31T20:16:09;18.90;99.90
1534;DHT22;760;48.822;9.304;2023-07-31T20:18:35;18.80;99.90
1534;DHT22;760;48.822;9.304;2023-07-31T20:21:02;18.80;99.90
1534;DHT22;760;48.822;9.304;2023-07-31T20:23:27;18.70;99.90
1534;DHT22;760;48.822;9.304;2023-07-31T20:25:53;18.70;99.90
1534;DHT22;760;48.822;9.304;2023-07-31T20:28:19;18.70;99.90